Meridian Naval Air Station
KNMM : now visible

Airfield :











YOU CAN JOIN US ON...

 
LOGIN :

Register | Disclaimer

   EN    FR    IT 

 









Legend :    VFR   Marginal VFR   IFR   Intensive IFR   Very Intensive IFR
Visi :
Ceiling :
>= 8 km
>= 3000ft
5 to 8 km
1000 to 3000 ft
1500m to 5 km
500 to 1000 ft
800 to 1500m
200 to 500 ft
< 800m
< 200 ft
Symbols :   Thunderstorms  Fog  Heavy snow  Heavy precipitations  Wind > 20 kt







- Airport Elevation : 316 ft


KNMM - Meridian Naval Air Station

CURRENT METAR :
  • 211756Z 10008KT 10SM FEW022CB SCT035 BKN060 BKN300 31/22 A3008 RMK AO2 RAE1658 SLP193 CB OHD MOV NW T2 SET P0000 60000 T03060222 10311 20244 $

EXPIRED METARs :
  • 211743Z 11005KT 10SM FEW022 SCT035 BKN060 BKN300 30/22 A3008 RMK AO2 RAE1658 CB DSNT NE AND SE T2 SET P0000 T03000222 VISNO SOUTH $
  • 211656Z 12007KT 9SM -RA SCT022CB BKN035 BKN070 BKN300 27/24 A3010 RMK AO2 RAB43 SLP199 CB VC E MOV N P0000 T02720244
  • 211619Z VRB05KT 10SM BKN020CB BKN040 BKN300 28/23 A3011 RMK AO2 CB VC SE MOV N T02830228
  • 211556Z 19003KT 10SM SCT018 SCT023 BKN035 BKN140 BKN300 28/23 A3012 RMK AO2 SLP204 T02830228
  • 211456Z 00000KT 10SM SCT016 BKN030 BKN140 BKN300 28/23 A3011 RMK AO2 SLP201 T02830228 51011

TAF TAF KNMM
Valid from the 21 at 15:00 until the 22 at 15:00 UTC


2115/2215 16005KT 9999 SCT020 BKN035 BKN140 BKN300 QNH3005INS
FM211700 16005KT 9999 VCTS SCT035CB BKN060 BKN300 QNH2999INS
TEMPO 2117/2123 VRB20G30KT 1600 +TSRA BR BKN035CB OVC060
FM212300 15003KT 9999 FEW060 SCT200 BKN300 QNH2999INS
FM221100 00000KT 6000 BR OVC008 QNH3001INS
FM221330 19004KT 9999 FEW010 SCT020 SCT300 QNH3002INS T33/2120Z T22/2211Z FN20035
No reported NOTAMs for that airfield.



MET'MAP, your aeronautical weather chart ! - Copyright ORBIFLY December 2007 - Disclaimer

ORBIFLY MET'MAP TEAM :

Programming & Development : Alexandra Zaïnal
Concept & Development : Baudouin d'Aumeries
Co-Development & Prog : Marc-Olivier Méhu
Technical & hardware support : Manuel Goepfert

Contact : metmap@orbifly.com




SOURCES & CREDITS :

   NOAA       Earth
Advisory